Time;durP1;ratioP1;P1;durP2;ratioP2;P2;SDS_P1;SDS_P2;PMS_P1;PMS_P2;Temp;Humidity;BMP_temperature;BMP_pressure;BME280_temperature;BME280_humidity;BME280_pressure;Samples;Min_cycle;Max_cycle;Signal;HPM_P1;HPM_P2
2021/12/30 00:00:42;;;;;;;25.43;13.00;;;8.00;99.90;;;;;;5079249;28;20205;-47
2021/12/30 00:03:09;;;;;;;24.67;11.27;;;7.90;99.90;;;;;;5071186;28;20216;-48
2021/12/30 00:05:38;;;;;;;18.80;10.50;;;7.90;99.90;;;;;;5086342;27;20307;-47
2021/12/30 00:08:06;;;;;;;20.17;11.10;;;7.90;99.90;;;;;;5048636;28;20208;-48
2021/12/30 00:10:33;;;;;;;24.40;10.67;;;7.90;99.90;;;;;;5066699;27;20223;-47
2021/12/30 00:13:00;;;;;;;24.53;11.63;;;7.90;99.90;;;;;;5062134;28;20204;-48
2021/12/30 00:15:27;;;;;;;28.97;11.50;;;8.00;99.90;;;;;;5075918;27;20216;-48
2021/12/30 00:17:54;;;;;;;16.57;9.67;;;7.90;99.90;;;;;;5067723;28;20249;-48
2021/12/30 00:20:21;;;;;;;20.80;10.50;;;8.00;99.90;;;;;;5058665;27;20214;-47
2021/12/30 00:22:50;;;;;;;18.17;9.20;;;7.90;99.90;;;;;;5047726;28;20705;-48
2021/12/30 00:25:17;;;;;;;24.70;9.73;;;8.00;99.90;;;;;;5085240;28;20617;-48
2021/12/30 00:27:44;;;;;;;20.87;9.90;;;8.00;99.90;;;;;;5060832;28;20196;-48
2021/12/30 00:30:13;;;;;;;22.17;8.77;;;8.00;99.90;;;;;;5068071;28;20879;-48
2021/12/30 00:32:41;;;;;;;20.10;8.10;;;8.00;99.90;;;;;;5072782;28;20966;-47
2021/12/30 00:35:09;;;;;;;22.07;8.63;;;8.00;99.90;;;;;;5083527;28;20227;-48
2021/12/30 00:37:36;;;;;;;20.73;8.13;;;7.90;99.90;;;;;;5077444;28;20203;-48
2021/12/30 00:40:07;;;;;;;21.23;8.73;;;7.90;99.90;;;;;;5065886;28;20208;-48
2021/12/30 00:42:34;;;;;;;17.33;8.30;;;7.90;99.90;;;;;;5069174;28;20196;-43
2021/12/30 00:45:00;;;;;;;20.40;7.90;;;7.90;99.90;;;;;;5071701;28;20232;-43
2021/12/30 00:47:28;;;;;;;15.33;8.00;;;7.80;99.90;;;;;;5065547;28;20876;-43
2021/12/30 00:49:56;;;;;;;18.77;7.87;;;7.80;99.90;;;;;;5080994;28;20318;-43
2021/12/30 00:52:24;;;;;;;19.50;9.33;;;7.80;99.90;;;;;;5080014;28;20211;-43
2021/12/30 00:54:51;;;;;;;14.33;7.30;;;7.70;99.90;;;;;;5059009;28;20541;-43
2021/12/30 00:57:19;;;;;;;19.93;6.93;;;7.70;99.90;;;;;;5079015;28;20204;-43
2021/12/30 00:59:46;;;;;;;24.00;7.47;;;7.70;99.90;;;;;;5060844;28;20212;-43
2021/12/30 01:02:13;;;;;;;22.30;6.57;;;7.70;99.90;;;;;;5073783;28;20218;-43
2021/12/30 01:04:40;;;;;;;21.90;6.37;;;7.70;99.90;;;;;;5066766;28;20219;-43
2021/12/30 01:07:07;;;;;;;16.20;5.37;;;7.70;99.90;;;;;;5066622;28;20219;-43
2021/12/30 01:09:34;;;;;;;17.70;5.50;;;7.70;99.90;;;;;;5061175;28;20214;-43
2021/12/30 01:12:01;;;;;;;13.43;5.13;;;7.70;99.90;;;;;;5058417;28;20200;-43
2021/12/30 01:14:31;;;;;;;14.00;5.93;;;7.70;99.90;;;;;;5062309;28;20216;-43
2021/12/30 01:17:11;;;;;;;22.87;5.13;;;7.80;99.90;;;;;;5066447;28;20261;-43
2021/12/30 01:19:45;;;;;;;18.23;5.53;;;7.80;99.90;;;;;;5067964;28;20207;-43
2021/12/30 01:22:15;;;;;;;21.03;4.87;;;7.60;99.90;;;;;;5064115;28;20314;-43
2021/12/30 01:24:43;;;;;;;18.60;4.50;;;7.70;99.90;;;;;;5071215;28;20219;-43
2021/12/30 01:27:10;;;;;;;14.87;4.53;;;7.70;99.90;;;;;;5060171;28;20227;-43
2021/12/30 01:29:38;;;;;;;14.60;3.50;;;7.70;99.90;;;;;;5061020;28;20214;-43
2021/12/30 01:32:06;;;;;;;14.57;3.97;;;7.70;99.90;;;;;;5069523;28;20204;-43
2021/12/30 01:34:33;;;;;;;19.43;4.30;;;7.70;99.90;;;;;;5076507;28;20196;-43
2021/12/30 01:37:02;;;;;;;16.63;4.07;;;7.70;99.90;;;;;;5062033;28;20231;-43
2021/12/30 01:39:31;;;;;;;14.87;3.83;;;7.60;99.90;;;;;;5066574;28;20203;-43
2021/12/30 01:41:59;;;;;;;11.73;3.30;;;7.60;99.90;;;;;;5054466;28;20248;-43
2021/12/30 01:44:28;;;;;;;27.20;4.73;;;7.60;99.90;;;;;;5077616;28;20619;-43
2021/12/30 01:46:57;;;;;;;18.67;3.73;;;7.60;99.90;;;;;;5054942;28;20216;-43
2021/12/30 01:49:25;;;;;;;15.50;3.90;;;7.70;99.90;;;;;;5069807;28;20684;-43
2021/12/30 01:51:53;;;;;;;12.53;3.47;;;7.60;99.90;;;;;;5074011;28;20754;-43
2021/12/30 01:54:21;;;;;;;20.90;4.00;;;7.60;99.90;;;;;;5067443;28;20361;-43
2021/12/30 01:56:50;;;;;;;13.97;3.77;;;7.70;99.90;;;;;;5065189;28;24246;-43
2021/12/30 01:59:17;;;;;;;14.13;3.67;;;7.70;99.90;;;;;;5077541;27;20208;-43
2021/12/30 02:01:45;;;;;;;11.90;3.03;;;7.70;99.90;;;;;;5063881;28;20202;-43
2021/12/30 02:04:14;;;;;;;12.80;3.63;;;7.70;99.90;;;;;;5077938;28;20335;-43
2021/12/30 02:06:41;;;;;;;17.83;3.90;;;7.70;99.90;;;;;;5076976;28;20216;-39
2021/12/30 02:09:08;;;;;;;11.33;3.40;;;7.70;99.90;;;;;;5074249;28;20846;-40
2021/12/30 02:11:35;;;;;;;17.83;4.80;;;7.70;99.90;;;;;;5070830;28;20211;-39
2021/12/30 02:14:02;;;;;;;16.20;3.30;;;7.70;99.90;;;;;;5055651;28;20211;-39
2021/12/30 02:16:29;;;;;;;28.60;3.87;;;7.70;99.90;;;;;;5083301;27;20593;-39
2021/12/30 02:18:56;;;;;;;18.23;4.07;;;7.70;99.90;;;;;;5059077;27;20212;-39
2021/12/30 02:21:24;;;;;;;19.13;4.53;;;7.70;99.90;;;;;;5082585;28;20208;-39
2021/12/30 02:23:51;;;;;;;15.80;3.37;;;7.70;99.90;;;;;;5066984;28;20290;-39
2021/12/30 02:26:20;;;;;;;13.40;4.30;;;7.70;99.90;;;;;;5075662;28;20223;-39
2021/12/30 02:28:47;;;;;;;23.93;4.47;;;7.80;99.90;;;;;;5054023;27;20589;-40
2021/12/30 02:31:18;;;;;;;20.50;4.67;;;7.80;99.90;;;;;;5078401;27;20741;-39
2021/12/30 02:33:46;;;;;;;18.60;4.70;;;7.70;99.90;;;;;;5076091;28;20200;-39
2021/12/30 02:36:14;;;;;;;19.00;4.13;;;7.70;99.90;;;;;;5074399;28;20234;-39
2021/12/30 02:38:45;;;;;;;15.63;4.13;;;7.70;99.90;;;;;;5074328;28;20222;-39
2021/12/30 02:41:16;;;;;;;25.30;4.17;;;7.70;99.90;;;;;;5072950;28;20219;-39
2021/12/30 02:43:43;;;;;;;16.43;5.00;;;7.60;99.90;;;;;;5059153;28;20307;-39
2021/12/30 02:46:11;;;;;;;21.63;4.53;;;7.70;99.90;;;;;;5071703;28;20523;-39
2021/12/30 02:48:41;;;;;;;23.17;5.33;;;7.70;99.90;;;;;;5076685;27;20209;-39
2021/12/30 02:51:11;;;;;;;20.13;4.53;;;7.60;99.90;;;;;;5067401;27;20801;-39
2021/12/30 02:53:38;;;;;;;16.43;4.90;;;7.60;99.90;;;;;;5067420;28;20204;-39
2021/12/30 02:56:08;;;;;;;23.83;4.87;;;7.60;99.90;;;;;;5074302;28;20309;-39
2021/12/30 02:58:35;;;;;;;13.97;4.77;;;7.60;99.90;;;;;;5058405;28;20211;-39
2021/12/30 03:01:07;;;;;;;33.07;5.40;;;7.50;99.90;;;;;;5054418;28;20208;-42
2021/12/30 03:03:34;;;;;;;34.57;4.90;;;7.50;99.90;;;;;;5075695;28;20427;-42
2021/12/30 03:06:05;;;;;;;24.17;4.97;;;7.60;99.90;;;;;;5070628;28;20231;-42
2021/12/30 03:08:32;;;;;;;21.07;4.87;;;7.50;99.90;;;;;;5067150;28;20204;-42
2021/12/30 03:10:59;;;;;;;25.43;4.93;;;7.50;99.90;;;;;;5073846;28;20312;-42
2021/12/30 03:13:31;;;;;;;16.80;4.23;;;7.50;99.90;;;;;;5071823;28;20203;-42
2021/12/30 03:16:00;;;;;;;16.40;4.00;;;7.60;99.90;;;;;;5061888;27;20449;-42
2021/12/30 03:18:27;;;;;;;20.83;4.20;;;7.60;99.90;;;;;;5076045;28;20208;-46
2021/12/30 03:20:54;;;;;;;20.80;4.77;;;7.50;99.90;;;;;;5064909;27;20373;-47
2021/12/30 03:23:21;;;;;;;22.70;5.00;;;7.50;99.90;;;;;;5072714;28;20204;-48
2021/12/30 03:25:48;;;;;;;23.13;4.10;;;7.60;99.90;;;;;;5073929;28;20709;-47
2021/12/30 03:28:16;;;;;;;27.97;5.37;;;7.60;99.90;;;;;;5078530;28;20207;-48
2021/12/30 03:30:44;;;;;;;22.47;5.33;;;7.50;99.90;;;;;;5046175;27;20805;-47
2021/12/30 03:33:12;;;;;;;27.67;4.43;;;7.50;99.90;;;;;;5064734;28;20258;-48
2021/12/30 03:35:39;;;;;;;33.20;4.83;;;7.50;99.90;;;;;;5073499;28;20212;-47
2021/12/30 03:38:06;;;;;;;27.77;5.07;;;7.50;99.90;;;;;;5074665;28;20627;-42
2021/12/30 03:40:35;;;;;;;30.47;5.00;;;7.50;99.90;;;;;;5078580;27;20195;-42
2021/12/30 03:43:03;;;;;;;18.47;3.90;;;7.50;99.90;;;;;;5071016;27;20213;-42
2021/12/30 03:45:30;;;;;;;24.00;4.53;;;7.60;99.90;;;;;;5049601;28;20379;-42
2021/12/30 03:47:58;;;;;;;27.97;4.20;;;7.60;99.90;;;;;;5075855;27;20785;-42
2021/12/30 03:50:27;;;;;;;26.03;4.17;;;7.60;99.90;;;;;;5075908;27;20206;-42
2021/12/30 03:52:56;;;;;;;20.07;5.23;;;7.50;99.90;;;;;;5069633;27;20857;-42
2021/12/30 03:55:24;;;;;;;26.77;4.60;;;7.60;99.90;;;;;;5058911;28;20227;-42
2021/12/30 03:57:53;;;;;;;23.73;4.27;;;7.60;99.90;;;;;;5073816;28;20203;-42
2021/12/30 04:00:21;;;;;;;21.43;5.03;;;7.60;99.90;;;;;;5075054;28;20204;-42
2021/12/30 04:02:48;;;;;;;34.47;5.03;;;7.50;99.90;;;;;;5051016;28;20211;-42
2021/12/30 04:05:17;;;;;;;19.17;4.23;;;7.50;99.90;;;;;;5055233;28;20227;-48
2021/12/30 04:07:44;;;;;;;29.77;5.53;;;7.50;99.90;;;;;;5065111;28;20200;-47
2021/12/30 04:10:13;;;;;;;18.63;4.10;;;7.50;99.90;;;;;;5066113;27;20700;-47
2021/12/30 04:12:41;;;;;;;26.83;4.23;;;7.40;99.90;;;;;;5071839;28;20246;-47
2021/12/30 04:15:09;;;;;;;14.83;4.00;;;7.40;99.90;;;;;;5063199;28;20944;-47
2021/12/30 04:17:36;;;;;;;22.97;4.53;;;7.40;99.90;;;;;;5053911;28;20915;-47
2021/12/30 04:20:04;;;;;;;21.77;4.40;;;7.40;99.90;;;;;;5074382;28;20203;-47
2021/12/30 04:22:32;;;;;;;17.60;5.30;;;7.30;99.90;;;;;;5062947;28;20454;-48
2021/12/30 04:24:59;;;;;;;23.43;4.60;;;7.40;99.90;;;;;;5074720;28;20203;-47
2021/12/30 04:27:26;;;;;;;25.93;4.30;;;7.40;99.90;;;;;;5046808;28;20316;-47
2021/12/30 04:29:53;;;;;;;19.67;4.27;;;7.30;99.90;;;;;;5081499;28;20655;-48
2021/12/30 04:32:20;;;;;;;16.90;5.03;;;7.30;99.90;;;;;;5047784;28;20525;-47
2021/12/30 04:34:47;;;;;;;23.07;4.50;;;7.30;99.90;;;;;;5076369;28;20204;-47
2021/12/30 04:37:14;;;;;;;21.97;4.40;;;7.30;99.90;;;;;;5071305;28;20204;-42
2021/12/30 04:39:42;;;;;;;23.93;4.23;;;7.30;99.90;;;;;;5070729;28;20678;-42
2021/12/30 04:42:09;;;;;;;29.67;4.27;;;7.30;99.90;;;;;;5079251;28;20204;-42
2021/12/30 04:44:36;;;;;;;13.80;3.83;;;7.40;99.90;;;;;;5074641;28;20215;-42
2021/12/30 04:47:05;;;;;;;29.67;4.43;;;7.40;99.90;;;;;;5070340;28;20498;-42
2021/12/30 04:49:31;;;;;;;20.83;5.37;;;7.40;99.90;;;;;;5049516;28;20525;-42
2021/12/30 04:51:59;;;;;;;22.37;5.10;;;7.50;99.90;;;;;;5075662;28;20684;-42
2021/12/30 04:54:26;;;;;;;37.00;5.63;;;7.60;99.90;;;;;;5062763;28;20257;-42
2021/12/30 04:56:55;;;;;;;22.27;3.77;;;7.60;99.90;;;;;;5075871;28;20215;-42
2021/12/30 04:59:22;;;;;;;26.63;5.80;;;7.60;99.90;;;;;;5064840;28;20216;-42
2021/12/30 05:01:48;;;;;;;27.43;4.90;;;7.70;99.90;;;;;;5055876;28;20204;-42
2021/12/30 05:04:16;;;;;;;24.43;6.60;;;7.70;99.90;;;;;;5059262;28;20210;-42
2021/12/30 05:06:43;;;;;;;20.50;5.27;;;7.70;99.90;;;;;;5073890;28;22484;-42
2021/12/30 05:09:10;;;;;;;27.03;5.77;;;7.70;99.90;;;;;;5058167;28;20212;-42
2021/12/30 05:11:40;;;;;;;24.07;5.90;;;7.70;99.90;;;;;;5075451;28;20554;-42
2021/12/30 05:14:08;;;;;;;26.67;6.10;;;7.80;99.90;;;;;;5077732;28;20196;-42
2021/12/30 05:16:36;;;;;;;31.03;6.80;;;7.80;99.90;;;;;;5057809;28;20233;-42
2021/12/30 05:19:03;;;;;;;33.27;6.00;;;7.80;99.90;;;;;;5064783;28;20211;-42
2021/12/30 05:21:30;;;;;;;35.53;6.00;;;7.90;99.90;;;;;;5060604;28;20281;-47
2021/12/30 05:23:57;;;;;;;33.83;6.97;;;7.90;99.90;;;;;;5070647;28;20195;-47
2021/12/30 05:26:27;;;;;;;29.63;7.50;;;7.90;99.90;;;;;;5062888;28;20351;-47
2021/12/30 05:28:55;;;;;;;25.60;7.43;;;7.90;99.90;;;;;;5065614;27;20212;-48
2021/12/30 05:31:23;;;;;;;40.40;7.90;;;8.10;99.90;;;;;;5056464;28;20206;-48
2021/12/30 05:33:50;;;;;;;27.90;8.20;;;8.10;99.90;;;;;;5067610;28;20515;-47
2021/12/30 05:36:18;;;;;;;30.17;7.30;;;8.10;99.90;;;;;;5051560;28;20255;-48
2021/12/30 05:38:45;;;;;;;36.77;8.70;;;8.10;99.90;;;;;;5062915;28;20215;-47
2021/12/30 05:41:12;;;;;;;32.73;8.03;;;8.20;99.90;;;;;;5070934;28;20214;-47
2021/12/30 05:43:39;;;;;;;30.57;7.90;;;8.20;99.90;;;;;;5079754;27;20397;-48
2021/12/30 05:46:06;;;;;;;36.63;8.93;;;8.20;99.90;;;;;;5073089;28;20579;-47
2021/12/30 05:48:34;;;;;;;26.87;7.90;;;8.30;99.90;;;;;;5065434;27;20697;-47
2021/12/30 05:51:01;;;;;;;29.40;8.27;;;8.30;99.90;;;;;;5049722;28;20220;-47
2021/12/30 05:53:28;;;;;;;28.03;9.10;;;8.30;99.90;;;;;;5063846;27;20235;-48
2021/12/30 05:55:55;;;;;;;34.27;8.47;;;8.40;99.90;;;;;;5070348;28;20226;-42
2021/12/30 05:58:22;;;;;;;40.33;8.73;;;8.40;99.90;;;;;;5059114;27;20590;-42
2021/12/30 06:00:50;;;;;;;41.83;9.33;;;8.40;99.90;;;;;;5073321;28;20222;-42
2021/12/30 06:03:19;;;;;;;27.67;8.40;;;8.30;99.90;;;;;;5074969;28;20207;-42
2021/12/30 06:05:47;;;;;;;29.43;8.30;;;8.30;99.90;;;;;;5067804;28;20287;-42
2021/12/30 06:08:14;;;;;;;31.47;8.57;;;8.30;99.90;;;;;;5046239;27;20606;-42
2021/12/30 06:10:42;;;;;;;29.77;9.30;;;8.30;99.90;;;;;;5076009;27;20315;-42
2021/12/30 06:13:10;;;;;;;28.63;9.30;;;8.30;99.90;;;;;;5067469;28;20217;-42
2021/12/30 06:15:37;;;;;;;36.03;8.60;;;8.30;99.90;;;;;;5075613;28;20434;-42
2021/12/30 06:18:04;;;;;;;35.63;8.70;;;8.20;99.90;;;;;;5078435;28;20204;-42
2021/12/30 06:20:31;;;;;;;31.43;8.50;;;8.30;99.90;;;;;;5057436;28;20627;-42
2021/12/30 06:22:59;;;;;;;28.43;8.90;;;8.20;99.90;;;;;;5062698;28;20714;-42
2021/12/30 06:25:27;;;;;;;36.27;8.83;;;8.20;99.90;;;;;;5059359;28;20421;-42
2021/12/30 06:27:54;;;;;;;32.67;9.43;;;8.20;99.90;;;;;;5073504;27;20200;-43
2021/12/30 06:30:21;;;;;;;37.80;9.17;;;8.20;99.90;;;;;;5062477;27;20200;-49
2021/12/30 06:32:48;;;;;;;29.40;8.33;;;8.20;99.90;;;;;;5081970;27;20212;-47
2021/12/30 06:35:15;;;;;;;43.80;10.63;;;8.20;99.90;;;;;;5068288;27;20609;-48
2021/12/30 06:37:42;;;;;;;38.73;10.40;;;8.20;99.90;;;;;;5058494;28;20724;-47
2021/12/30 06:40:13;;;;;;;31.47;8.53;;;8.20;99.90;;;;;;5058875;28;20698;-48
2021/12/30 06:42:43;;;;;;;32.23;9.27;;;8.20;99.90;;;;;;5066698;28;20412;-48
2021/12/30 06:45:10;;;;;;;32.73;10.40;;;8.20;99.90;;;;;;5063504;28;20280;-47
2021/12/30 06:47:37;;;;;;;28.83;9.60;;;8.20;99.90;;;;;;5076817;27;20818;-47
2021/12/30 06:50:05;;;;;;;37.50;10.90;;;8.30;99.90;;;;;;5077299;27;20201;-48
2021/12/30 06:52:32;;;;;;;34.20;10.60;;;8.30;99.90;;;;;;5062917;28;21020;-48
2021/12/30 06:54:59;;;;;;;33.80;10.97;;;8.40;99.90;;;;;;5054426;27;20223;-48
2021/12/30 06:57:28;;;;;;;47.10;10.70;;;8.40;99.90;;;;;;5067521;28;20389;-48
2021/12/30 06:59:55;;;;;;;36.20;10.83;;;8.50;99.90;;;;;;5067389;28;20211;-48
2021/12/30 07:02:22;;;;;;;45.57;11.67;;;8.50;99.90;;;;;;5061430;28;20211;-40
2021/12/30 07:04:49;;;;;;;28.83;10.77;;;8.60;99.90;;;;;;5080297;28;20606;-40
2021/12/30 07:07:16;;;;;;;44.80;11.57;;;8.60;99.90;;;;;;5076063;28;20712;-40
2021/12/30 07:09:43;;;;;;;35.83;11.63;;;8.70;99.90;;;;;;5044908;27;20398;-40
2021/12/30 07:12:10;;;;;;;42.67;11.63;;;8.60;99.90;;;;;;5070789;28;21147;-40
2021/12/30 07:14:38;;;;;;;36.47;10.70;;;8.70;99.90;;;;;;5072687;28;20199;-40
2021/12/30 07:17:05;;;;;;;37.43;10.00;;;8.70;99.90;;;;;;5068666;27;20795;-39
2021/12/30 07:19:32;;;;;;;22.40;10.73;;;8.70;99.90;;;;;;5084095;28;20203;-40
2021/12/30 07:21:59;;;;;;;34.23;10.53;;;8.70;99.90;;;;;;5073825;27;20210;-40
2021/12/30 07:24:26;;;;;;;39.83;11.37;;;8.70;99.90;;;;;;5061501;28;20724;-40
2021/12/30 07:26:53;;;;;;;39.77;11.50;;;8.60;99.90;;;;;;5076935;27;20223;-40
2021/12/30 07:29:20;;;;;;;34.40;10.03;;;8.60;99.90;;;;;;5072879;28;20511;-39
2021/12/30 07:31:49;;;;;;;48.60;11.77;;;8.70;99.90;;;;;;5068142;28;20205;-40
2021/12/30 07:34:16;;;;;;;41.50;12.57;;;8.60;99.90;;;;;;5073262;27;20211;-40
2021/12/30 07:36:42;;;;;;;29.60;10.97;;;8.60;99.90;;;;;;5079628;27;20220;-40
2021/12/30 07:39:10;;;;;;;31.73;10.43;;;8.60;99.90;;;;;;5057200;28;20644;-40
2021/12/30 07:41:37;;;;;;;29.97;10.17;;;8.50;99.90;;;;;;5053082;28;20211;-40
2021/12/30 07:44:04;;;;;;;32.30;11.03;;;8.50;99.90;;;;;;5068403;28;20492;-40
2021/12/30 07:46:31;;;;;;;42.77;11.97;;;8.60;99.90;;;;;;5067213;28;20582;-43
2021/12/30 07:48:59;;;;;;;33.33;10.65;;;8.60;99.90;;;;;;5061320;28;20847;-43
2021/12/30 07:51:26;;;;;;;33.80;10.93;;;8.60;99.90;;;;;;5079782;27;20507;-43
2021/12/30 07:53:53;;;;;;;38.53;11.32;;;8.60;99.90;;;;;;5074162;27;20836;-43
2021/12/30 07:56:20;;;;;;;48.73;12.33;;;8.70;99.90;;;;;;5040960;28;20227;-48
2021/12/30 07:58:47;;;;;;;44.22;11.43;;;8.70;99.90;;;;;;5057964;28;20223;-48
2021/12/30 08:01:14;;;;;;;32.43;10.77;;;8.70;99.90;;;;;;5050453;28;20212;-48
2021/12/30 08:03:41;;;;;;;42.17;12.50;;;8.70;99.90;;;;;;5064621;27;20875;-48
2021/12/30 08:06:10;;;;;;;32.37;10.23;;;8.70;99.90;;;;;;5074704;28;20222;-48
2021/12/30 08:08:36;;;;;;;40.23;11.20;;;8.80;99.90;;;;;;5063005;28;20211;-47
2021/12/30 08:11:05;;;;;;;35.80;10.73;;;8.80;99.90;;;;;;5041555;28;20761;-48
2021/12/30 08:13:35;;;;;;;24.33;9.73;;;8.80;99.90;;;;;;5073503;28;20196;-48
2021/12/30 08:16:01;;;;;;;27.73;10.18;;;8.80;99.90;;;;;;5049768;28;20235;-48
2021/12/30 08:18:28;;;;;;;24.40;9.97;;;8.90;99.90;;;;;;5061048;27;20235;-47
2021/12/30 08:20:56;;;;;;;37.07;11.03;;;8.90;99.90;;;;;;5056754;28;20214;-48
2021/12/30 08:23:25;;;;;;;33.80;9.20;;;8.90;99.90;;;;;;5070202;28;20204;-48
2021/12/30 08:25:52;;;;;;;26.33;10.00;;;8.90;99.90;;;;;;5045673;28;20228;-44
2021/12/30 08:28:19;;;;;;;27.10;9.57;;;8.90;99.90;;;;;;5062697;28;20228;-44
2021/12/30 08:30:47;;;;;;;31.92;9.27;;;9.00;99.90;;;;;;5059277;28;20218;-40
2021/12/30 08:33:14;;;;;;;25.97;9.13;;;9.00;99.90;;;;;;5070033;28;20203;-48
2021/12/30 08:35:41;;;;;;;33.08;9.98;;;9.00;99.90;;;;;;5067904;28;20233;-42
2021/12/30 08:38:08;;;;;;;25.92;9.70;;;9.00;99.90;;;;;;5062298;28;20231;-43
2021/12/30 08:40:36;;;;;;;18.80;8.53;;;9.10;99.90;;;;;;5062583;28;20207;-43
2021/12/30 08:43:03;;;;;;;23.75;9.10;;;9.10;99.90;;;;;;5068880;28;20321;-48
2021/12/30 08:45:30;;;;;;;22.02;8.05;;;9.20;99.90;;;;;;5076611;28;20223;-40
2021/12/30 08:47:57;;;;;;;25.38;8.73;;;9.20;99.90;;;;;;5051778;28;20246;-40
2021/12/30 08:50:24;;;;;;;21.30;8.93;;;9.20;99.90;;;;;;5071504;28;20215;-40
2021/12/30 08:52:51;;;;;;;29.20;9.00;;;9.20;99.90;;;;;;5065916;28;20219;-40
2021/12/30 08:55:19;;;;;;;24.73;8.27;;;9.30;99.90;;;;;;5071270;28;20225;-40
2021/12/30 08:57:48;;;;;;;21.40;7.80;;;9.30;99.90;;;;;;5051329;28;20222;-40
2021/12/30 09:00:19;;;;;;;16.80;8.13;;;9.30;99.90;;;;;;5072016;28;20684;-40
2021/12/30 09:02:46;;;;;;;20.17;8.10;;;9.40;99.90;;;;;;5064879;28;20912;-40
2021/12/30 09:05:13;;;;;;;24.87;7.80;;;9.40;99.90;;;;;;5081997;27;20235;-40
2021/12/30 09:07:40;;;;;;;19.13;7.57;;;9.50;99.90;;;;;;5072418;27;20227;-40
2021/12/30 09:10:09;;;;;;;17.90;8.40;;;9.50;99.90;;;;;;5070889;28;20219;-48
2021/12/30 09:12:36;;;;;;;19.37;8.63;;;9.50;99.90;;;;;;5053604;27;21497;-48
2021/12/30 09:15:06;;;;;;;21.97;9.37;;;9.60;99.90;;;;;;5065674;28;20970;-48
2021/12/30 09:17:33;;;;;;;22.00;9.20;;;9.60;99.90;;;;;;5066134;27;20196;-48
2021/12/30 09:20:00;;;;;;;19.00;8.55;;;9.60;99.90;;;;;;5077306;27;20954;-40
2021/12/30 09:22:27;;;;;;;21.50;9.40;;;9.70;99.90;;;;;;5072092;27;20940;-40
2021/12/30 09:24:54;;;;;;;19.67;8.70;;;9.70;99.90;;;;;;5069627;28;20208;-40
2021/12/30 09:27:21;;;;;;;20.53;8.40;;;9.70;99.90;;;;;;5059653;27;20586;-40
2021/12/30 09:29:47;;;;;;;16.65;7.97;;;9.70;99.90;;;;;;5060438;28;20211;-43
2021/12/30 09:32:16;;;;;;;18.52;8.00;;;9.70;99.90;;;;;;5076673;28;20210;-43
2021/12/30 09:34:44;;;;;;;14.17;7.33;;;9.80;99.90;;;;;;5058396;27;20204;-43
2021/12/30 09:37:11;;;;;;;19.90;7.75;;;9.80;99.90;;;;;;5057833;28;20228;-43
2021/12/30 09:39:40;;;;;;;13.93;7.63;;;9.90;99.90;;;;;;5077524;27;20279;-43
2021/12/30 09:42:08;;;;;;;14.75;8.18;;;10.00;99.90;;;;;;5072455;27;20836;-43
2021/12/30 09:44:35;;;;;;;10.27;5.97;;;10.00;99.90;;;;;;5068801;27;20208;-43
2021/12/30 09:47:02;;;;;;;10.10;6.60;;;10.10;99.90;;;;;;5070903;27;20220;-44
2021/12/30 09:49:30;;;;;;;10.57;5.88;;;10.10;99.90;;;;;;5070905;28;20693;-43
2021/12/30 09:51:57;;;;;;;8.63;5.28;;;10.10;99.90;;;;;;5062159;28;20855;-43
2021/12/30 09:54:24;;;;;;;10.27;5.57;;;10.10;99.90;;;;;;5073626;28;20199;-40
2021/12/30 09:56:52;;;;;;;7.38;5.32;;;10.10;99.90;;;;;;5067359;28;20220;-40
2021/12/30 09:59:20;;;;;;;15.98;6.07;;;10.20;99.90;;;;;;5048596;28;20685;-40
2021/12/30 10:01:47;;;;;;;9.15;4.95;;;10.20;99.90;;;;;;5070197;28;20208;-40
2021/12/30 10:04:14;;;;;;;8.23;4.97;;;10.30;99.90;;;;;;5067238;27;20241;-40
2021/12/30 10:06:47;;;;;;;7.93;4.53;;;10.40;99.90;;;;;;5062251;28;20227;-40
2021/12/30 10:09:16;;;;;;;9.07;4.70;;;10.40;99.90;;;;;;5066447;27;20211;-40
2021/12/30 10:11:48;;;;;;;7.32;4.65;;;10.50;99.90;;;;;;5068906;27;20203;-40
2021/12/30 10:14:28;;;;;;;6.93;4.32;;;10.50;99.90;;;;;;5045313;28;22362;-40
2021/12/30 10:17:20;;;;;;;7.82;3.72;;;10.50;99.90;;;;;;5075290;28;20227;-40
2021/12/30 10:19:48;;;;;;;6.95;3.67;;;10.90;99.90;;;;;;5054250;28;20208;-40
2021/12/30 10:22:19;;;;;;;5.35;3.25;;;10.90;99.90;;;;;;5074374;28;20212;-40
2021/12/30 10:24:47;;;;;;;8.02;3.50;;;10.80;99.90;;;;;;5060484;28;20211;-40
2021/12/30 10:27:24;;;;;;;4.47;3.17;;;10.90;99.90;;;;;;5067205;27;20227;-40
2021/12/30 10:29:51;;;;;;;6.90;3.65;;;10.80;99.90;;;;;;5068367;28;20214;-40
2021/12/30 10:32:22;;;;;;;5.00;3.28;;;10.80;99.90;;;;;;5072407;28;20199;-40
2021/12/30 10:35:10;;;;;;;4.63;2.92;;;10.90;99.90;;;;;;5077420;28;20256;-40
2021/12/30 10:37:42;;;;;;;4.10;2.72;;;11.00;99.90;;;;;;5072183;28;20610;-40
2021/12/30 10:40:26;;;;;;;4.47;2.22;;;11.00;99.90;;;;;;5073202;28;20219;-40
2021/12/30 10:43:12;;;;;;;4.68;2.50;;;11.10;99.90;;;;;;5065626;27;20208;-40
2021/12/30 10:45:39;;;;;;;5.15;1.98;;;11.00;99.90;;;;;;5079773;28;20262;-40
2021/12/30 10:48:09;;;;;;;2.53;1.70;;;11.00;99.90;;;;;;5051925;28;21208;-40
2021/12/30 10:50:36;;;;;;;4.18;1.73;;;11.10;99.90;;;;;;5065508;28;20317;-40
2021/12/30 10:53:04;;;;;;;4.18;1.70;;;11.20;99.90;;;;;;5067440;28;20200;-40
2021/12/30 10:55:34;;;;;;;2.38;1.83;;;11.20;99.90;;;;;;5070804;28;21384;-40
2021/12/30 10:58:25;;;;;;;2.53;1.88;;;11.20;99.90;;;;;;5042972;28;20208;-40
2021/12/30 11:00:53;;;;;;;4.55;1.70;;;11.20;99.90;;;;;;5056653;28;20192;-40
2021/12/30 11:03:21;;;;;;;2.20;1.67;;;11.20;99.90;;;;;;5042573;28;20564;-40
2021/12/30 11:06:12;;;;;;;2.72;1.33;;;11.30;99.90;;;;;;5062803;27;20237;-40
2021/12/30 11:08:41;;;;;;;1.55;1.45;;;11.30;99.90;;;;;;5067794;28;20320;-40
2021/12/30 11:11:23;;;;;;;1.20;1.10;;;11.30;99.90;;;;;;5056825;28;20213;-40
2021/12/30 11:13:58;;;;;;;1.52;1.05;;;11.20;99.90;;;;;;5057638;28;20215;-44
2021/12/30 11:16:25;;;;;;;1.35;0.95;;;11.30;99.90;;;;;;5071058;28;20241;-44
2021/12/30 11:18:52;;;;;;;1.45;1.02;;;11.30;99.90;;;;;;5044866;28;20224;-44
2021/12/30 11:21:38;;;;;;;1.42;1.00;;;11.40;99.90;;;;;;5063334;28;21498;-44
2021/12/30 11:24:07;;;;;;;1.13;1.02;;;11.40;99.90;;;;;;5064287;28;20212;-44
2021/12/30 11:26:34;;;;;;;1.48;1.00;;;11.40;99.90;;;;;;5064646;28;20220;-40
2021/12/30 11:29:02;;;;;;;1.15;1.05;;;11.40;99.90;;;;;;5059352;28;20220;-41
2021/12/30 11:31:30;;;;;;;2.53;1.17;;;11.40;99.90;;;;;;5066071;28;20222;-40
2021/12/30 11:33:59;;;;;;;2.05;0.88;;;11.50;99.90;;;;;;5038627;28;20578;-41
2021/12/30 11:36:28;;;;;;;1.10;1.00;;;11.50;99.90;;;;;;5058229;28;20219;-40
2021/12/30 11:38:55;;;;;;;1.15;1.05;;;11.50;99.90;;;;;;5060353;28;20533;-41
2021/12/30 11:41:28;;;;;;;1.25;1.15;;;11.60;99.90;;;;;;5061555;28;20682;-41
2021/12/30 11:43:55;;;;;;;1.25;1.15;;;11.70;99.90;;;;;;5054885;28;20315;-40
2021/12/30 11:46:42;;;;;;;1.27;1.17;;;11.60;99.90;;;;;;5067955;28;20230;-40
2021/12/30 11:49:11;;;;;;;1.23;1.13;;;11.60;99.90;;;;;;5063410;28;20679;-44
2021/12/30 11:51:44;;;;;;;1.63;1.40;;;11.60;99.90;;;;;;5058991;28;20211;-44
2021/12/30 11:54:34;;;;;;;2.08;1.48;;;11.60;99.90;;;;;;5077640;28;20568;-44
2021/12/30 11:57:32;;;;;;;1.20;1.10;;;11.70;99.90;;;;;;5060884;28;21332;-44
2021/12/30 12:00:01;;;;;;;1.17;1.08;;;11.70;99.90;;;;;;5041093;28;20207;-45
2021/12/30 12:02:36;;;;;;;1.88;1.30;;;11.80;99.90;;;;;;5055049;28;20206;-44
2021/12/30 12:05:40;;;;;;;2.55;1.60;;;11.80;99.90;;;;;;5037919;27;20215;-44
2021/12/30 12:08:09;;;;;;;1.50;1.40;;;11.80;99.90;;;;;;5060658;28;20211;-48
2021/12/30 12:10:36;;;;;;;1.33;1.23;;;11.80;99.90;;;;;;5069928;28;20215;-48
2021/12/30 12:13:34;;;;;;;1.73;1.60;;;11.80;99.90;;;;;;5069341;28;20207;-49
2021/12/30 12:16:03;;;;;;;2.55;1.60;;;11.80;99.90;;;;;;5065037;28;20223;-48
2021/12/30 12:18:30;;;;;;;1.98;1.63;;;11.80;99.90;;;;;;5039202;28;20207;-49
2021/12/30 12:21:00;;;;;;;1.90;1.70;;;11.70;99.90;;;;;;5053752;28;20208;-44
2021/12/30 12:23:32;;;;;;;2.50;1.45;;;11.70;99.90;;;;;;5065110;28;20204;-44
2021/12/30 12:26:10;;;;;;;3.10;1.98;;;11.70;99.90;;;;;;5058571;28;20223;-44
2021/12/30 12:28:39;;;;;;;1.98;1.77;;;11.70;99.90;;;;;;5059623;28;20221;-44
2021/12/30 12:31:07;;;;;;;1.95;1.77;;;11.80;99.90;;;;;;5060792;28;20215;-44
2021/12/30 12:33:36;;;;;;;1.83;1.65;;;11.70;99.90;;;;;;5061173;28;20207;-44
2021/12/30 12:36:10;;;;;;;1.85;1.65;;;11.80;99.90;;;;;;5059632;28;21000;-44
2021/12/30 12:38:42;;;;;;;1.40;1.30;;;11.70;99.90;;;;;;5057303;28;20565;-44
2021/12/30 12:41:21;;;;;;;1.88;1.75;;;11.70;99.90;;;;;;5041796;28;20218;-44
2021/12/30 12:43:56;;;;;;;2.95;1.58;;;11.70;99.90;;;;;;5075690;28;20200;-44
2021/12/30 12:46:39;;;;;;;1.65;1.40;;;11.70;99.90;;;;;;5054052;28;21268;-45
2021/12/30 12:49:07;;;;;;;3.63;3.33;;;11.80;99.90;;;;;;5047181;28;20223;-45
2021/12/30 12:51:35;;;;;;;5.78;3.33;;;11.90;99.90;;;;;;5057755;28;20843;-45
2021/12/30 12:54:05;;;;;;;2.55;2.33;;;11.90;99.90;;;;;;5061861;28;20204;-45